Time;durP1;ratioP1;P1;durP2;ratioP2;P2;SDS_P1;SDS_P2;PMS_P1;PMS_P2;Temp;Humidity;BMP_temperature;BMP_pressure;BME280_temperature;BME280_humidity;BME280_pressure;Samples;Min_cycle;Max_cycle;Signal;HPM_P1;HPM_P2
2022/10/06 05:46:07;;;;;;;;;4.25;4.25;;;;;13.45;65.25;102889.53;2689539;23;46015;-79
2022/10/06 05:47:18;;;;;;;;;6.00;3.00;;;;;13.44;65.00;102892.16;2391852;28;45496;-79
2022/10/06 05:48:29;;;;;;;;;6.50;4.00;;;;;13.43;65.26;102893.06;2391883;28;48054;-79
2022/10/06 05:49:39;;;;;;;;;7.75;3.50;;;;;13.43;65.23;102895.72;2384996;28;44772;-80
2022/10/06 05:51:08;;;;;;;;;5.50;4.50;;;;;13.42;65.29;102893.94;2389737;28;45439;-79
2022/10/06 05:52:18;;;;;;;;;5.50;3.00;;;;;13.38;64.92;102891.31;2393874;28;45293;-80
2022/10/06 05:53:30;;;;;;;;;6.50;4.00;;;;;13.38;65.46;102893.97;2393771;28;45337;-80
2022/10/06 05:54:40;;;;;;;;;5.00;4.25;;;;;13.36;65.44;102898.41;2392201;28;45408;-80
2022/10/06 05:55:51;;;;;;;;;5.75;4.00;;;;;13.35;65.07;102898.41;2390010;28;46192;-79
2022/10/06 05:57:01;;;;;;;;;3.00;3.00;;;;;13.33;64.85;102895.81;2383453;28;45298;-80
2022/10/06 05:58:11;;;;;;;;;8.50;5.75;;;;;13.32;65.33;102903.72;2385632;28;46337;-79
2022/10/06 05:59:22;;;;;;;;;5.75;4.00;;;;;13.30;65.30;102906.41;2391837;28;45418;-80
2022/10/06 06:00:33;;;;;;;;;6.50;3.75;;;;;13.27;65.17;102896.72;2392425;28;46110;-80
2022/10/06 06:01:44;;;;;;;;;9.50;4.50;;;;;13.26;65.40;102904.69;2387359;28;45223;-80
2022/10/06 06:02:54;;;;;;;;;6.50;5.50;;;;;13.23;65.07;102900.31;2379639;28;47129;-80
2022/10/06 06:04:07;;;;;;;;;6.00;4.25;;;;;13.22;65.43;102901.19;2382110;28;45426;-80
2022/10/06 06:05:17;;;;;;;;;5.75;4.50;;;;;13.22;65.45;102908.22;2374353;28;46686;-80
2022/10/06 06:06:35;;;;;;;;;3.75;2.50;;;;;13.21;65.49;102901.19;2377015;28;45421;-80
2022/10/06 06:07:45;;;;;;;;;7.25;5.50;;;;;13.19;65.66;102903.84;2389704;28;46281;-80
2022/10/06 06:09:20;;;;;;;;;6.50;4.25;;;;;13.19;65.55;102903.84;2390186;28;45547;-80
2022/10/06 06:10:31;;;;;;;;;7.00;4.00;;;;;13.16;65.72;102894.19;2386406;28;45529;-80
2022/10/06 06:11:46;;;;;;;;;9.50;5.00;;;;;13.16;65.55;102894.19;2392562;28;45453;-80
2022/10/06 06:12:56;;;;;;;;;11.50;4.00;;;;;13.13;65.52;102896.88;2383915;28;45589;-80
2022/10/06 06:14:09;;;;;;;;;7.75;4.00;;;;;13.13;65.81;102907.44;2379077;28;45589;-80
2022/10/06 06:16:49;;;;;;;;;7.25;3.25;;;;;13.09;65.56;102904.84;2384922;28;46509;-80
2022/10/06 06:18:00;;;;;;;;;8.75;4.50;;;;;13.07;65.78;102903.94;2387833;28;46473;-80
2022/10/06 06:19:12;;;;;;;;;5.75;4.75;;;;;13.06;65.88;102911.00;2390494;28;45287;-80
2022/10/06 06:20:22;;;;;;;;;4.25;3.75;;;;;13.03;66.06;102914.56;2392246;28;45592;-80
2022/10/06 06:21:33;;;;;;;;;10.50;7.00;;;;;13.01;65.86;102916.31;2388424;28;45390;-80
2022/10/06 06:22:43;;;;;;;;;4.25;4.25;;;;;13.00;65.78;102911.94;2389113;28;46091;-82
2022/10/06 06:23:53;;;;;;;;;5.00;4.00;;;;;12.98;65.93;102910.19;2390404;28;44762;-82
2022/10/06 06:25:04;;;;;;;;;6.75;6.00;;;;;12.97;66.11;102914.59;2385898;28;45326;-82
2022/10/06 06:26:23;;;;;;;;;8.75;6.50;;;;;12.97;65.82;102917.22;2382368;28;44712;-81
2022/10/06 06:27:34;;;;;;;;;8.50;7.00;;;;;12.94;65.70;102917.25;2381842;28;45429;-81
2022/10/06 06:28:45;;;;;;;;;10.50;8.00;;;;;12.92;65.86;102916.38;2393020;28;44829;-79
2022/10/06 06:29:56;;;;;;;;;10.00;7.25;;;;;12.92;66.03;102919.03;2392327;28;46075;-80
2022/10/06 06:31:13;;;;;;;;;7.50;6.75;;;;;12.90;66.17;102926.09;2383248;28;45255;-80
2022/10/06 06:32:23;;;;;;;;;10.50;10.25;;;;;12.90;66.34;102926.97;2390521;28;46103;-80
2022/10/06 06:33:38;;;;;;;;;8.25;7.00;;;;;12.91;66.33;102930.50;2388585;28;45188;-80
2022/10/06 06:34:49;;;;;;;;;13.75;8.50;;;;;12.89;66.27;102927.84;2375123;28;47627;-79
2022/10/06 06:36:02;;;;;;;;;7.50;7.00;;;;;12.91;66.39;102930.50;2380305;28;45340;-79
2022/10/06 06:37:12;;;;;;;;;9.00;6.25;;;;;12.91;66.30;102935.78;2384327;28;45303;-79
2022/10/06 06:38:22;;;;;;;;;4.00;4.00;;;;;12.92;66.69;102926.94;2388683;28;44614;-79
2022/10/06 06:39:33;;;;;;;;;9.75;7.00;;;;;12.94;66.51;102935.72;2381646;28;47016;-79
2022/10/06 06:40:43;;;;;;;;;8.75;7.00;;;;;12.96;66.76;102938.38;2373108;28;45217;-80
2022/10/06 06:41:53;;;;;;;;;6.00;5.75;;;;;12.98;66.53;102936.59;2371815;28;48031;-80
2022/10/06 06:43:04;;;;;;;;;7.00;4.00;;;;;13.00;66.63;102935.69;2377030;28;44597;-80
2022/10/06 06:44:14;;;;;;;;;7.50;5.25;;;;;13.01;66.43;102940.06;2374084;28;47913;-79
2022/10/06 06:45:24;;;;;;;;;8.00;4.75;;;;;13.03;67.14;102934.78;2386329;28;44748;-79
2022/10/06 06:46:35;;;;;;;;;9.50;6.75;;;;;13.04;66.56;102937.41;2389408;28;45423;-79
2022/10/06 06:47:47;;;;;;;;;3.75;3.00;;;;;13.08;66.63;102942.66;2384999;28;45228;-80
2022/10/06 06:49:03;;;;;;;;;7.00;4.00;;;;;13.11;66.13;102947.94;2393328;28;45707;-79
2022/10/06 06:50:16;;;;;;;;;7.75;7.75;;;;;13.12;66.61;102944.38;2382145;28;45448;-80
2022/10/06 06:51:26;;;;;;;;;8.25;6.75;;;;;13.13;66.76;102941.75;2386631;28;45329;-80
2022/10/06 06:52:36;;;;;;;;;5.50;4.50;;;;;13.16;66.78;102951.41;2393451;28;44624;-79
2022/10/06 06:53:47;;;;;;;;;6.00;2.75;;;;;13.19;66.73;102953.13;2393225;28;46504;-79
2022/10/06 06:54:58;;;;;;;;;9.00;4.00;;;;;13.20;66.63;102947.84;2387340;28;45408;-80
2022/10/06 06:56:08;;;;;;;;;8.50;6.50;;;;;13.22;66.94;102951.34;2383873;28;46294;-79
2022/10/06 06:57:18;;;;;;;;;5.50;4.00;;;;;13.25;66.40;102953.97;2384217;28;45287;-79
2022/10/06 06:58:29;;;;;;;;;8.25;4.50;;;;;13.27;66.83;102953.94;2383784;28;45362;-79
2022/10/06 06:59:39;;;;;;;;;6.75;4.50;;;;;13.30;66.34;102953.06;2376066;28;45282;-80
2022/10/06 07:00:50;;;;;;;;;8.25;5.00;;;;;13.31;66.43;102962.75;2368929;28;45988;-79
2022/10/06 07:02:02;;;;;;;;;7.50;4.00;;;;;13.34;66.85;102957.41;2366805;28;45476;-80
2022/10/06 07:03:14;;;;;;;;;7.25;5.25;;;;;13.36;66.69;102952.97;2380941;28;45683;-80
2022/10/06 07:04:24;;;;;;;;;7.00;4.00;;;;;13.37;66.47;102954.75;2385888;28;45496;-80
2022/10/06 07:05:34;;;;;;;;;2.00;2.00;;;;;13.38;66.61;102956.50;2390860;28;45651;-80
2022/10/06 07:06:57;;;;;;;;;9.00;5.50;;;;;13.40;66.27;102965.28;2392087;28;44909;-80
2022/10/06 07:08:09;;;;;;;;;11.25;6.50;;;;;13.42;66.18;102958.22;2383368;28;46371;-80
2022/10/06 07:09:19;;;;;;;;;5.50;4.50;;;;;13.43;66.31;102967.91;2387535;28;45552;-80
2022/10/06 07:10:34;;;;;;;;;5.00;3.25;;;;;13.44;66.07;102964.38;2389249;28;45600;-80
2022/10/06 07:11:45;;;;;;;;;5.00;3.75;;;;;13.46;66.79;102970.50;2390633;28;45500;-80
2022/10/06 07:12:55;;;;;;;;;9.75;6.25;;;;;13.48;65.99;102975.78;2391399;28;45394;-80
2022/10/06 07:14:11;;;;;;;;;6.75;6.75;;;;;13.49;66.08;102975.75;2380484;28;45326;-80
2022/10/06 07:25:51;;;;;;;;;5.25;4.00;;;;;13.68;66.37;102987.97;2391403;28;46097;-79
2022/10/06 07:27:02;;;;;;;;;6.50;5.25;;;;;13.69;66.53;102989.69;2379648;28;47647;-79
2022/10/06 07:28:15;;;;;;;;;6.00;4.75;;;;;13.72;66.31;102993.19;2376160;28;44615;-79
2022/10/06 07:29:26;;;;;;;;;5.00;3.00;;;;;13.76;66.50;102990.50;2383066;28;45568;-80
2022/10/06 07:30:37;;;;;;;;;6.50;4.25;;;;;13.76;66.46;102985.22;2392780;28;45445;-79
2022/10/06 07:31:48;;;;;;;;;7.75;5.75;;;;;13.78;66.35;102994.03;2378487;28;47386;-80
2022/10/06 07:32:58;;;;;;;;;8.25;5.50;;;;;13.80;66.45;102994.88;2385616;28;45806;-80
2022/10/06 07:34:08;;;;;;;;;9.25;7.50;;;;;13.82;66.71;102988.69;2393553;28;46385;-80
2022/10/06 07:35:20;;;;;;;;;8.25;6.25;;;;;13.84;66.16;102997.47;2390314;28;45501;-80
2022/10/06 07:36:31;;;;;;;;;7.75;5.00;;;;;13.85;66.29;102993.06;2390974;28;45480;-79
2022/10/06 07:37:42;;;;;;;;;7.50;5.25;;;;;13.87;66.62;102996.56;2393147;28;44834;-79
2022/10/06 07:38:52;;;;;;;;;7.00;6.25;;;;;13.88;66.34;102995.66;2392277;28;46224;-79
2022/10/06 07:40:05;;;;;;;;;11.75;6.75;;;;;13.90;66.49;103004.44;2394053;28;45388;-78
2022/10/06 07:41:16;;;;;;;;;7.50;5.00;;;;;13.91;66.31;102992.13;2393332;28;47096;-78
2022/10/06 07:42:26;;;;;;;;;7.00;5.75;;;;;13.94;66.29;103003.53;2382651;28;45875;-78
2022/10/06 07:43:36;;;;;;;;;7.75;6.00;;;;;13.95;66.51;103004.44;2376987;28;48098;-78
2022/10/06 07:46:18;;;;;;;;;9.50;3.00;;;;;14.00;65.82;103007.03;2372698;28;45601;-78
2022/10/06 07:47:28;;;;;;;;;4.25;4.25;;;;;14.02;65.97;103005.22;2392460;28;45319;-78
2022/10/06 07:48:39;;;;;;;;;7.75;3.75;;;;;14.05;66.15;103010.50;2391801;28;46803;-78
2022/10/06 07:49:49;;;;;;;;;5.00;3.25;;;;;14.06;65.88;103004.28;2383058;28;45454;-78
2022/10/06 07:51:00;;;;;;;;;9.00;6.50;;;;;14.10;65.86;103006.00;2385122;28;45502;-78
2022/10/06 07:52:10;;;;;;;;;6.50;4.00;;;;;14.12;65.76;103012.16;2392065;28;44750;-78
2022/10/06 07:53:26;;;;;;;;;5.75;4.00;;;;;14.14;65.49;103013.03;2381090;28;46864;-78
2022/10/06 07:54:36;;;;;;;;;3.25;3.25;;;;;14.16;65.31;103019.16;2381211;28;45525;-78
2022/10/06 07:55:48;;;;;;;;;4.00;2.75;;;;;14.19;64.69;103012.97;2386275;28;45571;-78
2022/10/06 07:56:58;;;;;;;;;6.75;5.00;;;;;14.21;64.78;103016.47;2392730;28;45501;-78
2022/10/06 07:58:14;;;;;;;;;4.50;3.75;;;;;14.25;64.70;103015.53;2388974;28;46581;-78
2022/10/06 07:59:24;;;;;;;;;7.50;1.75;;;;;14.28;64.51;103017.25;2386526;28;45155;-78
2022/10/06 08:00:35;;;;;;;;;4.00;2.75;;;;;14.31;65.02;103016.34;2389709;28;45628;-78
2022/10/06 08:01:45;;;;;;;;;7.25;3.75;;;;;14.34;64.38;103021.59;2379124;28;45537;-78
2022/10/06 08:02:55;;;;;;;;;3.00;3.00;;;;;14.35;64.18;103018.94;2371871;28;48124;-78
2022/10/06 08:04:06;;;;;;;;;4.00;3.50;;;;;14.39;64.17;103018.03;2381885;28;45021;-78
2022/10/06 08:05:16;;;;;;;;;4.75;2.25;;;;;14.42;64.26;103014.44;2379514;28;47342;-78
2022/10/06 08:06:26;;;;;;;;;3.00;2.50;;;;;14.48;64.09;103019.66;2375554;28;45453;-78
2022/10/06 08:07:37;;;;;;;;;3.50;2.50;;;;;14.51;64.06;103026.69;2368692;28;48204;-78
2022/10/06 08:08:47;;;;;;;;;4.00;3.00;;;;;14.54;63.68;103029.31;2376463;28;45512;-79
2022/10/06 08:09:57;;;;;;;;;5.25;2.00;;;;;14.57;63.15;103026.59;2379473;28;47435;-78
2022/10/06 08:11:09;;;;;;;;;3.50;1.25;;;;;14.59;63.37;103022.16;2374968;28;45291;-78
2022/10/06 08:12:31;;;;;;;;;4.25;2.50;;;;;14.61;63.25;103025.69;2382965;28;46117;-78
2022/10/06 08:13:46;;;;;;;;;4.00;2.50;;;;;14.65;63.59;103031.78;2388843;28;45464;-78
2022/10/06 08:14:56;;;;;;;;;3.75;3.25;;;;;14.68;63.82;103023.81;2389205;28;46192;-78
2022/10/06 08:16:28;;;;;;;;;6.75;3.25;;;;;14.73;63.65;103019.34;2389951;28;45152;-78
2022/10/06 08:17:39;;;;;;;;;4.00;2.25;;;;;14.77;63.80;103025.44;2389914;28;47270;-78
2022/10/06 08:18:53;;;;;;;;;5.25;2.00;;;;;14.81;63.52;103027.16;2389863;28;46193;-78
2022/10/06 08:20:07;;;;;;;;;7.50;3.00;;;;;14.83;63.62;103025.38;2390277;28;47549;-78
2022/10/06 08:21:20;;;;;;;;;5.25;3.00;;;;;14.89;63.61;103018.28;2389924;28;45147;-78
2022/10/06 08:22:31;;;;;;;;;5.00;3.00;;;;;14.91;63.31;103032.34;2389987;28;46401;-78
2022/10/06 08:23:42;;;;;;;;;5.75;4.00;;;;;14.94;63.36;103027.00;2389564;28;45270;-78
2022/10/06 08:24:53;;;;;;;;;4.00;3.00;;;;;14.96;63.42;103019.94;2389486;28;45495;-78
2022/10/06 08:26:04;;;;;;;;;5.75;2.75;;;;;14.99;62.92;103030.44;2390583;28;45421;-78
2022/10/06 08:27:14;;;;;;;;;8.00;2.50;;;;;15.01;62.86;103031.34;2389549;28;45470;-78
2022/10/06 08:28:24;;;;;;;;;4.75;4.00;;;;;15.04;63.21;103031.25;2389941;28;45131;-78
2022/10/06 08:29:35;;;;;;;;;4.75;2.00;;;;;15.06;62.43;103029.47;2391419;28;46688;-78
2022/10/06 08:30:45;;;;;;;;;4.00;1.00;;;;;15.10;62.11;103032.94;2379339;28;45829;-78
2022/10/06 08:31:58;;;;;;;;;3.25;1.75;;;;;15.12;62.21;103030.28;2381619;28;45456;-78
2022/10/06 08:33:08;;;;;;;;;4.25;2.50;;;;;15.12;62.18;103025.84;2380815;28;45290;-78
2022/10/06 08:34:20;;;;;;;;;3.50;2.25;;;;;15.18;62.33;103030.19;2382217;28;45624;-78
2022/10/06 08:35:31;;;;;;;;;5.25;1.75;;;;;15.20;62.17;103028.38;2382989;28;45349;-78
2022/10/06 08:36:42;;;;;;;;;4.00;2.00;;;;;15.23;61.83;103035.41;2370306;28;46470;-78
2022/10/06 08:37:53;;;;;;;;;3.50;2.25;;;;;15.25;60.69;103039.78;2382852;28;45737;-78
2022/10/06 08:39:06;;;;;;;;;3.25;2.75;;;;;15.29;61.82;103040.59;2389819;28;46338;-78
2022/10/06 08:40:16;;;;;;;;;3.00;2.00;;;;;15.33;61.88;103044.09;2389674;28;44771;-78
2022/10/06 08:41:49;;;;;;;;;3.75;2.00;;;;;15.36;61.85;103039.59;2392028;28;45574;-78
2022/10/06 08:43:01;;;;;;;;;2.75;2.25;;;;;15.38;61.67;103032.50;2389199;28;45708;-78
2022/10/06 08:44:20;;;;;;;;;4.25;2.00;;;;;15.44;62.07;103043.91;2389228;28;45382;-78
2022/10/06 08:45:42;;;;;;;;;3.75;2.00;;;;;15.47;62.37;103038.53;2378088;28;45536;-78
2022/10/06 08:47:00;;;;;;;;;7.00;3.25;;;;;15.50;62.11;103042.03;2377297;28;45559;-78
2022/10/06 08:48:19;;;;;;;;;3.00;2.00;;;;;15.53;60.82;103044.63;2369506;28;45487;-80
2022/10/06 08:49:51;;;;;;;;;4.25;1.25;;;;;15.57;61.14;103041.91;2372575;28;45507;-78
2022/10/06 08:51:14;;;;;;;;;3.00;2.00;;;;;15.61;61.43;103046.25;2378890;28;45429;-78
2022/10/06 08:52:47;;;;;;;;;2.75;1.00;;;;;15.62;59.83;103042.72;2379538;28;46883;-78
2022/10/06 08:54:23;;;;;;;;;3.50;1.75;;;;;15.62;60.27;103043.59;2380243;28;46148;-78
2022/10/06 08:55:40;;;;;;;;;6.25;3.00;;;;;15.65;58.99;103047.97;2381921;28;46480;-78
2022/10/06 08:57:05;;;;;;;;;4.50;2.00;;;;;15.67;59.91;103048.81;2379132;28;46027;-77
2022/10/06 08:58:39;;;;;;;;;6.25;2.00;;;;;15.70;59.62;103054.06;2380188;28;46536;-77
2022/10/06 08:59:54;;;;;;;;;3.00;3.00;;;;;15.73;59.88;103048.69;2369985;28;45025;-78
2022/10/06 09:01:19;;;;;;;;;3.75;1.00;;;;;15.78;59.12;103053.06;2372460;28;45461;-78
2022/10/06 09:02:37;;;;;;;;;4.00;2.00;;;;;15.82;59.74;103057.41;2379771;28;45511;-78
2022/10/06 09:03:51;;;;;;;;;3.25;2.00;;;;;15.83;58.52;103054.69;2380058;28;46301;-78
2022/10/06 09:05:04;;;;;;;;;4.00;1.50;;;;;15.87;59.35;103060.84;2380408;28;45654;-78
2022/10/06 09:06:34;;;;;;;;;5.25;2.25;;;;;15.88;58.61;103054.63;2380876;28;45693;-78
2022/10/06 09:08:13;;;;;;;;;9.00;3.00;;;;;15.94;59.50;103057.16;2370410;28;45387;-78
2022/10/06 09:09:33;;;;;;;;;3.50;2.00;;;;;16.00;58.93;103057.97;2378157;28;45644;-78
2022/10/06 09:11:03;;;;;;;;;5.00;3.25;;;;;16.02;58.39;103067.63;2371096;28;45710;-78
2022/10/06 09:12:26;;;;;;;;;3.25;1.50;;;;;16.07;59.29;103059.63;2375378;28;45620;-78
2022/10/06 09:13:46;;;;;;;;;2.00;2.00;;;;;16.08;57.89;103059.59;2382129;28;46940;-78
2022/10/06 09:15:18;;;;;;;;;3.75;3.00;;;;;16.12;58.63;103059.53;2367606;28;47181;-78
2022/10/06 09:16:35;;;;;;;;;5.00;3.25;;;;;16.13;58.67;103062.16;2376556;28;44835;-78
2022/10/06 09:18:01;;;;;;;;;5.75;2.00;;;;;16.12;57.63;103065.72;2381027;28;45543;-78
2022/10/06 09:19:18;;;;;;;;;4.00;0.00;;;;;16.17;58.69;103060.31;2379894;28;45412;-78
2022/10/06 09:20:35;;;;;;;;;2.50;2.00;;;;;16.18;57.59;103060.28;2380775;28;45550;-78
2022/10/06 09:21:49;;;;;;;;;3.50;3.00;;;;;16.23;58.12;103067.25;2380229;28;45698;-78
2022/10/06 09:23:05;;;;;;;;;1.25;0.00;;;;;16.26;58.46;103061.91;2379931;28;47123;-78
2022/10/06 09:24:22;;;;;;;;;5.00;2.00;;;;;16.29;58.33;103062.72;2379665;28;44810;-78
2022/10/06 09:25:33;;;;;;;;;2.50;1.25;;;;;16.32;58.13;103061.78;2378805;28;46569;-78
2022/10/06 09:26:47;;;;;;;;;1.00;1.00;;;;;16.34;57.53;103059.97;2381201;28;45437;-78
2022/10/06 09:28:00;;;;;;;;;4.00;2.00;;;;;16.39;58.30;103058.13;2380604;28;46503;-78
2022/10/06 09:29:11;;;;;;;;;4.00;1.00;;;;;16.44;58.60;103063.31;2381071;28;45589;-78
2022/10/06 09:30:22;;;;;;;;;2.50;0.00;;;;;16.48;58.17;103062.34;2372557;28;48118;-78
2022/10/06 09:31:43;;;;;;;;;3.75;1.75;;;;;16.52;58.41;103071.09;2371049;28;44871;-78
2022/10/06 09:32:58;;;;;;;;;5.75;3.00;;;;;16.54;57.97;103062.19;2370000;28;47462;-78
2022/10/06 09:34:29;;;;;;;;;3.50;1.00;;;;;16.56;57.23;103063.97;2373975;28;45521;-78
2022/10/06 09:36:05;;;;;;;;;5.75;2.00;;;;;16.57;57.37;103057.75;2382290;28;45499;-78
2022/10/06 09:37:15;;;;;;;;;4.00;1.25;;;;;16.57;56.16;103071.88;2370310;28;45412;-77
2022/10/06 09:38:46;;;;;;;;;3.00;2.25;;;;;16.59;57.34;103059.47;2365056;28;47525;-78
2022/10/06 09:39:56;;;;;;;;;4.25;1.00;;;;;16.63;56.84;103068.22;2361010;28;45632;-77
2022/10/06 09:41:10;;;;;;;;;4.25;1.50;;;;;16.64;57.07;103070.00;2373707;28;47454;-78
2022/10/06 09:42:28;;;;;;;;;2.00;2.00;;;;;16.67;57.13;103058.44;2371221;28;46252;-78
2022/10/06 09:43:51;;;;;;;;;3.75;2.00;;;;;16.70;56.50;103063.66;2374360;28;46434;-77
2022/10/06 09:45:04;;;;;;;;;4.50;1.75;;;;;16.72;57.27;103061.84;2379968;28;45306;-77
2022/10/06 09:46:27;;;;;;;;;1.25;0.00;;;;;16.72;56.17;103054.75;2383827;28;45429;-77
2022/10/06 09:47:44;;;;;;;;;1.00;1.00;;;;;16.73;56.55;103055.63;2387917;28;44814;-77
2022/10/06 09:49:04;;;;;;;;;2.00;1.00;;;;;16.75;56.72;103054.69;2389704;28;45637;-77
2022/10/06 09:50:27;;;;;;;;;4.00;3.00;;;;;16.79;56.40;103063.44;2389294;28;45580;-77
2022/10/06 09:51:37;;;;;;;;;4.00;2.00;;;;;16.80;55.81;103061.66;2388026;28;47045;-77
2022/10/06 09:52:48;;;;;;;;;1.25;1.00;;;;;16.83;56.78;103066.91;2388701;28;44897;-77
2022/10/06 09:54:09;;;;;;;;;2.25;1.25;;;;;16.85;56.81;103063.31;2387623;28;45539;-78
2022/10/06 09:55:21;;;;;;;;;1.50;1.50;;;;;16.87;56.38;103057.97;2383113;28;45411;-77
2022/10/06 09:56:32;;;;;;;;;1.00;1.00;;;;;16.90;57.07;103062.34;2390041;28;45581;-77
2022/10/06 09:57:54;;;;;;;;;3.50;1.50;;;;;16.94;56.73;103058.72;2390515;28;45626;-77
2022/10/06 09:59:35;;;;;;;;;4.00;2.00;;;;;16.96;56.40;103054.25;2371308;28;47427;-77
2022/10/06 10:00:53;;;;;;;;;3.50;2.25;;;;;16.99;57.40;103054.16;2385380;28;45537;-77
2022/10/06 10:02:04;;;;;;;;;4.00;1.00;;;;;17.02;57.64;103051.44;2378020;28;48063;-77
2022/10/06 10:03:14;;;;;;;;;9.00;6.25;;;;;17.06;57.91;103053.09;2371284;28;45437;-77
2022/10/06 10:04:29;;;;;;;;;7.75;2.00;;;;;17.10;57.76;103052.13;2378578;28;47096;-77
2022/10/06 10:05:46;;;;;;;;;1.00;1.00;;;;;17.13;57.01;103052.97;2382280;28;45497;-77
2022/10/06 10:07:24;;;;;;;;;1.75;1.00;;;;;17.14;56.61;103057.34;2389977;28;46214;-77
2022/10/06 10:08:35;;;;;;;;;4.00;1.75;;;;;17.13;56.21;103053.84;2379287;28;47037;-77
2022/10/06 10:09:45;;;;;;;;;2.25;2.00;;;;;17.12;56.14;103053.84;2382361;28;46474;-77
2022/10/06 10:12:58;;;;;;;;;4.50;2.00;;;;;17.19;56.43;103052.84;2383359;28;45500;-77
2022/10/06 10:14:17;;;;;;;;;3.00;1.00;;;;;17.19;55.19;103056.38;2390193;28;45512;-77
2022/10/06 10:15:30;;;;;;;;;4.25;2.00;;;;;17.22;55.04;103050.09;2388940;28;45423;-77
2022/10/06 10:16:41;;;;;;;;;3.00;2.00;;;;;17.26;56.35;103053.59;2391958;28;45519;-77
2022/10/06 10:18:01;;;;;;;;;1.25;1.00;;;;;17.28;54.89;103055.28;2390585;28;46364;-77
2022/10/06 10:19:26;;;;;;;;;1.00;1.00;;;;;17.32;55.50;103056.06;2389336;28;45382;-77
2022/10/06 10:20:54;;;;;;;;;2.25;2.00;;;;;17.36;55.13;103054.22;2379168;28;47521;-77
2022/10/06 10:22:05;;;;;;;;;2.75;2.00;;;;;17.38;55.60;103057.72;2384880;28;45487;-77
2022/10/06 10:23:35;;;;;;;;;1.00;1.00;;;;;17.42;55.36;103051.41;2388589;28;46484;-78
2022/10/06 10:24:54;;;;;;;;;4.00;1.00;;;;;17.47;55.22;103056.59;2388957;28;47040;-77
2022/10/06 10:26:28;;;;;;;;;5.00;2.25;;;;;17.51;55.21;103050.28;2388840;28;46297;-78
2022/10/06 10:27:56;;;;;;;;;4.25;1.00;;;;;17.55;56.11;103049.31;2389808;28;45523;-77
2022/10/06 10:29:29;;;;;;;;;6.50;2.75;;;;;17.60;54.64;103051.84;2391215;28;46476;-78
2022/10/06 10:30:53;;;;;;;;;1.25;1.00;;;;;17.64;55.39;103046.41;2389253;28;45313;-78
2022/10/06 10:32:14;;;;;;;;;1.75;1.50;;;;;17.70;54.95;103045.38;2387361;28;46539;-78
2022/10/06 10:33:35;;;;;;;;;3.00;1.75;;;;;17.73;53.78;103037.28;2389284;28;44755;-78
2022/10/06 10:34:48;;;;;;;;;2.50;1.25;;;;;17.77;52.64;103044.31;2388934;28;45510;-78
2022/10/06 10:36:03;;;;;;;;;1.50;1.50;;;;;17.82;52.48;103051.28;2388510;28;45598;-77
2022/10/06 10:37:16;;;;;;;;;1.00;1.00;;;;;17.84;54.10;103050.31;2386687;28;46406;-78
2022/10/06 10:38:27;;;;;;;;;6.00;2.00;;;;;17.85;53.01;103041.41;2388780;28;44957;-77
2022/10/06 10:39:43;;;;;;;;;2.25;1.00;;;;;17.90;52.87;103049.28;2389385;28;46284;-78
2022/10/06 10:40:59;;;;;;;;;3.00;2.00;;;;;17.88;51.35;103045.78;2389523;28;45718;-78
2022/10/06 10:42:29;;;;;;;;;5.50;2.00;;;;;17.92;52.41;103035.94;2389034;28;45679;-77
2022/10/06 10:43:52;;;;;;;;;5.00;0.25;;;;;17.94;51.06;103039.41;2389447;28;45681;-78
2022/10/06 10:45:12;;;;;;;;;2.25;0.75;;;;;17.97;51.39;103040.22;2388348;28;48304;-78
2022/10/06 10:46:30;;;;;;;;;1.75;1.50;;;;;17.99;50.96;103035.72;2381788;28;45518;-77
2022/10/06 10:47:44;;;;;;;;;3.50;2.00;;;;;18.03;52.45;103032.97;2387823;28;46486;-77
2022/10/06 10:49:03;;;;;;;;;1.50;1.25;;;;;18.08;50.21;103039.03;2389442;28;45523;-77
2022/10/06 10:51:16;;;;;;;;;1.00;0.25;;;;;18.15;50.82;103043.25;2388290;28;46863;-77
2022/10/06 10:52:34;;;;;;;;;2.50;1.25;;;;;18.22;51.63;103042.19;2328882;29;45443;-77
2022/10/06 10:53:52;;;;;;;;;1.25;0.75;;;;;18.28;50.48;103037.63;2341774;29;46545;-77
2022/10/06 10:55:31;;;;;;;;;1.00;1.00;;;;;18.30;50.19;103041.09;2341872;29;46140;-77
2022/10/06 10:56:47;;;;;;;;;1.75;1.00;;;;;18.35;50.15;103039.19;2346361;29;45652;-78
2022/10/06 10:58:09;;;;;;;;;3.75;2.00;;;;;18.37;51.69;103042.66;2379156;28;45407;-78
2022/10/06 10:59:39;;;;;;;;;2.00;1.00;;;;;18.45;50.80;103034.44;2390363;28;45496;-77
2022/10/06 11:00:55;;;;;;;;;1.00;1.00;;;;;18.50;49.77;103031.66;2391384;28;45667;-77
2022/10/06 11:02:14;;;;;;;;;5.50;2.25;;;;;18.52;49.10;103040.50;2392809;28;45547;-78
2022/10/06 11:03:24;;;;;;;;;2.00;2.00;;;;;18.52;49.92;103036.00;2382288;28;45203;-78
2022/10/06 11:04:40;;;;;;;;;2.50;1.25;;;;;18.53;50.35;103032.44;2384073;28;46535;-77
2022/10/06 11:06:00;;;;;;;;;2.50;1.00;;;;;18.57;50.73;103027.88;2390610;28;44842;-77
2022/10/06 11:07:25;;;;;;;;;3.75;2.00;;;;;18.59;51.29;103031.41;2390746;28;45539;-78
2022/10/06 11:08:44;;;;;;;;;1.75;1.75;;;;;18.65;50.63;103028.53;2390791;28;46960;-77
2022/10/06 11:10:10;;;;;;;;;3.00;1.50;;;;;18.71;50.83;103023.94;2380333;28;48201;-77
2022/10/06 11:11:42;;;;;;;;;1.25;1.25;;;;;18.74;51.10;103023.84;2387882;28;45361;-78
2022/10/06 11:12:56;;;;;;;;;5.75;1.00;;;;;18.82;51.34;103032.44;2381484;28;48243;-77
2022/10/06 11:14:19;;;;;;;;;5.25;2.00;;;;;18.86;48.32;103027.91;2383820;28;45480;-78
2022/10/06 11:15:52;;;;;;;;;1.50;1.00;;;;;18.91;50.45;103035.75;2390289;28;46392;-77
2022/10/06 11:17:39;;;;;;;;;2.00;1.25;;;;;18.94;50.66;103023.19;2379299;28;45687;-77
2022/10/06 11:18:58;;;;;;;;;1.75;1.00;;;;;18.97;50.50;103028.44;2387810;28;45470;-77
2022/10/06 11:20:11;;;;;;;;;1.00;1.00;;;;;19.02;50.44;103020.28;2380220;28;45311;-78
2022/10/06 11:21:56;;;;;;;;;2.75;1.25;;;;;19.06;48.15;103021.91;2380545;28;45666;-77
2022/10/06 11:23:35;;;;;;;;;5.25;1.75;;;;;19.06;47.77;103023.72;2388732;28;45555;-77
2022/10/06 11:25:03;;;;;;;;;3.50;1.00;;;;;19.08;47.29;103021.88;2373279;28;46129;-77
2022/10/06 11:26:26;;;;;;;;;3.25;2.00;;;;;19.10;48.53;103023.56;2383973;28;45235;-77
2022/10/06 11:27:48;;;;;;;;;5.50;2.00;;;;;19.16;48.96;103024.28;2390542;28;46443;-77
2022/10/06 11:29:05;;;;;;;;;2.25;2.00;;;;;19.19;48.05;103024.19;2389562;28;45528;-77
2022/10/06 11:30:18;;;;;;;;;1.75;1.75;;;;;19.20;48.26;103023.28;2390404;28;45877;-77
2022/10/06 11:31:33;;;;;;;;;1.50;0.75;;;;;19.22;48.61;103026.78;2389188;28;45557;-78
2022/10/06 11:33:01;;;;;;;;;3.25;0.00;;;;;19.25;47.58;103025.81;2389670;28;45343;-77
2022/10/06 11:34:13;;;;;;;;;1.00;1.00;;;;;19.25;45.97;103021.34;2390509;28;45527;-77
2022/10/06 11:35:25;;;;;;;;;2.75;1.00;;;;;19.25;43.72;103018.69;2389323;28;45475;-77
2022/10/06 11:36:42;;;;;;;;;0.00;0.00;;;;;19.26;45.24;103020.41;2391125;28;44971;-77
2022/10/06 11:38:04;;;;;;;;;0.00;0.00;;;;;19.26;43.74;103014.22;2389559;28;46324;-77
2022/10/06 11:39:19;;;;;;;;;0.00;0.00;;;;;19.25;43.43;103018.69;2390327;28;45396;-77
2022/10/06 11:40:53;;;;;;;;;2.00;0.00;;;;;19.27;46.28;103013.28;2392026;28;46235;-77
2022/10/06 11:42:13;;;;;;;;;3.25;1.25;;;;;19.28;45.89;103015.03;2390508;28;45309;-77
2022/10/06 11:43:33;;;;;;;;;2.25;1.00;;;;;19.32;45.58;103016.66;2390204;28;45505;-77
2022/10/06 11:44:49;;;;;;;;;5.50;0.50;;;;;19.37;46.30;103017.38;2390422;28;45437;-77
2022/10/06 11:46:05;;;;;;;;;2.00;1.00;;;;;19.41;45.06;103018.16;2390550;28;46292;-77
2022/10/06 11:47:24;;;;;;;;;1.00;1.00;;;;;19.44;45.41;103010.03;2388613;28;47020;-77
2022/10/06 11:48:34;;;;;;;;;4.75;2.25;;;;;19.48;45.69;103010.81;2389895;28;46782;-77
2022/10/06 11:49:54;;;;;;;;;1.50;0.50;;;;;19.52;46.29;103010.66;2389922;28;45543;-77
2022/10/06 11:51:23;;;;;;;;;2.00;1.00;;;;;19.58;46.86;103008.69;2379876;28;48045;-78
2022/10/06 11:52:35;;;;;;;;;0.50;0.50;;;;;19.62;46.52;103010.31;2385404;28;44714;-77
2022/10/06 11:53:45;;;;;;;;;1.00;1.00;;;;;19.65;45.78;103007.56;2379578;28;48480;-77
2022/10/06 11:55:08;;;;;;;;;1.00;1.00;;;;;19.69;45.70;103001.19;2383220;28;45389;-77
2022/10/06 11:56:18;;;;;;;;;1.75;1.75;;;;;19.70;44.58;103004.72;2393232;28;45552;-77